Time;durP1;ratioP1;P1;durP2;ratioP2;P2;SDS_P1;SDS_P2;PMS_P1;PMS_P2;Temp;Humidity;BMP_temperature;BMP_pressure;BME280_temperature;BME280_humidity;BME280_pressure;Samples;Min_cycle;Max_cycle;Signal;HPM_P1;HPM_P2
2023/12/21 00:01:49;;;;;;;1.50;1.40;;;;;;;14.43;55.10;96938.71;105386;1261;66234;-48
2023/12/21 00:04:17;;;;;;;1.10;1.10;;;;;;;14.43;55.18;96937.79;105244;1262;72595;-48
2023/12/21 00:06:44;;;;;;;2.30;1.30;;;;;;;14.43;55.13;96937.70;105346;1261;62082;-47
2023/12/21 00:09:12;;;;;;;1.60;1.30;;;;;;;14.43;55.22;96933.55;105209;1262;62042;-48
2023/12/21 00:11:39;;;;;;;1.70;1.40;;;;;;;14.43;55.22;96925.30;105169;1262;75515;-47
2023/12/21 00:14:07;;;;;;;1.50;1.40;;;;;;;14.43;55.16;96922.14;105252;1260;65780;-48
2023/12/21 00:16:34;;;;;;;1.50;1.20;;;;;;;14.43;55.15;96915.06;105212;1262;72040;-48
2023/12/21 00:19:01;;;;;;;1.40;1.20;;;;;;;14.43;55.20;96910.29;105201;1261;62053;-48
2023/12/21 00:21:29;;;;;;;1.50;1.10;;;;;;;14.43;55.18;96904.60;105202;1260;62166;-47
2023/12/21 00:23:56;;;;;;;1.60;1.20;;;;;;;14.43;55.04;96900.36;105053;1263;75456;-47
2023/12/21 00:26:24;;;;;;;2.60;1.20;;;;;;;14.43;55.23;96899.35;105277;1257;66122;-48
2023/12/21 00:28:51;;;;;;;1.60;1.30;;;;;;;14.43;55.19;96899.07;105409;1262;72391;-49
2023/12/21 00:31:18;;;;;;;1.50;1.30;;;;;;;14.43;55.22;96902.20;105454;1260;62076;-47
2023/12/21 00:33:46;;;;;;;2.90;1.40;;;;;;;14.43;55.15;96906.83;105303;1263;62111;-47
2023/12/21 00:36:16;;;;;;;1.60;1.50;;;;;;;14.43;55.12;96907.46;105382;1262;75489;-47
2023/12/21 00:38:44;;;;;;;1.50;1.30;;;;;;;14.43;55.28;96910.37;105442;1257;66330;-48
2023/12/21 00:41:11;;;;;;;2.30;1.10;;;;;;;14.43;55.08;96910.92;105153;1261;73228;-48
2023/12/21 00:43:39;;;;;;;1.30;1.20;;;;;;;14.43;55.02;96906.77;105384;1262;61931;-47
2023/12/21 00:46:06;;;;;;;1.60;1.50;;;;;;;14.43;55.17;96909.37;105238;1257;62124;-47
2023/12/21 00:48:33;;;;;;;1.40;1.30;;;;;;;14.43;55.09;96911.83;105260;1257;75467;-48
2023/12/21 00:51:01;;;;;;;1.40;1.30;;;;;;;14.43;55.20;96912.52;105194;1260;65882;-48
2023/12/21 00:53:28;;;;;;;1.80;1.20;;;;;;;14.44;55.15;96910.84;105486;1261;72602;-47
2023/12/21 00:55:56;;;;;;;1.40;1.30;;;;;;;14.44;55.12;96909.08;105303;1264;61959;-48
2023/12/21 00:58:23;;;;;;;1.50;1.40;;;;;;;14.44;55.28;96903.38;105442;1258;62075;-48
2023/12/21 01:00:51;;;;;;;1.40;1.00;;;;;;;14.43;55.20;96905.14;105422;1259;74353;-48
2023/12/21 01:03:18;;;;;;;1.70;1.30;;;;;;;14.43;55.16;96898.84;105327;1261;66251;-48
2023/12/21 01:05:46;;;;;;;1.30;1.20;;;;;;;14.43;55.09;96897.45;105277;1261;72623;-48
2023/12/21 01:08:13;;;;;;;1.40;1.30;;;;;;;14.43;55.13;96892.52;105223;1261;62059;-48
2023/12/21 01:10:41;;;;;;;1.30;1.10;;;;;;;14.43;55.06;96889.52;105200;1258;62078;-47
2023/12/21 01:13:08;;;;;;;2.00;1.30;;;;;;;14.43;55.09;96888.05;105457;1257;75390;-48
2023/12/21 01:15:35;;;;;;;1.80;1.10;;;;;;;14.43;55.10;96881.05;105282;1257;65531;-48
2023/12/21 01:18:03;;;;;;;2.10;1.30;;;;;;;14.44;55.04;96881.45;105423;1258;73376;-48
2023/12/21 01:20:30;;;;;;;1.20;1.10;;;;;;;14.44;55.11;96882.14;105729;1258;62173;-47
2023/12/21 01:22:58;;;;;;;1.30;1.10;;;;;;;14.44;55.08;96879.06;105448;1260;62420;-48
2023/12/21 01:25:25;;;;;;;1.30;1.20;;;;;;;14.44;55.02;96877.75;105211;1261;75594;-48
2023/12/21 01:27:52;;;;;;;1.40;1.20;;;;;;;14.45;55.12;96876.15;105559;1261;67163;-48
2023/12/21 01:30:21;;;;;;;1.20;1.00;;;;;;;14.44;55.11;96876.98;105463;1258;72432;-47
2023/12/21 01:32:49;;;;;;;1.60;1.30;;;;;;;14.44;55.03;96869.29;105259;1261;62079;-47
2023/12/21 01:35:17;;;;;;;1.70;1.10;;;;;;;14.44;55.06;96865.75;105158;1262;62094;-47
2023/12/21 01:37:44;;;;;;;1.80;1.40;;;;;;;14.45;55.11;96861.69;105133;1260;75444;-47
2023/12/21 01:40:12;;;;;;;1.30;1.20;;;;;;;14.45;55.10;96858.84;105164;1260;66543;-47
2023/12/21 01:42:40;;;;;;;1.50;1.20;;;;;;;14.45;55.05;96858.08;105378;1257;72584;-47
2023/12/21 01:45:08;;;;;;;1.60;1.30;;;;;;;14.45;54.99;96855.99;105470;1261;62056;-47
2023/12/21 01:47:35;;;;;;;1.40;1.20;;;;;;;14.45;54.91;96859.33;105316;1257;62037;-47
2023/12/21 01:50:03;;;;;;;2.30;1.60;;;;;;;14.45;55.06;96859.78;105367;1257;75245;-47
2023/12/21 01:52:30;;;;;;;1.20;1.10;;;;;;;14.45;54.95;96865.02;105385;1260;66363;-47
2023/12/21 01:54:58;;;;;;;1.20;1.10;;;;;;;14.45;55.07;96863.08;105290;1261;71636;-49
2023/12/21 01:57:26;;;;;;;1.40;1.20;;;;;;;14.46;54.96;96855.33;105151;1263;62507;-47
2023/12/21 01:59:53;;;;;;;1.80;1.20;;;;;;;14.45;54.99;96857.31;105144;1257;62218;-47
2023/12/21 02:02:20;;;;;;;1.60;1.30;;;;;;;14.46;55.02;96850.39;105293;1261;76185;-47
2023/12/21 02:04:48;;;;;;;1.20;1.00;;;;;;;14.46;54.99;96848.40;105213;1260;66055;-47
2023/12/21 02:07:16;;;;;;;1.10;1.00;;;;;;;14.46;54.98;96847.09;105285;1257;72608;-47
2023/12/21 02:09:43;;;;;;;1.20;1.10;;;;;;;14.46;54.89;96845.86;105399;1257;62136;-47
2023/12/21 02:12:10;;;;;;;1.50;1.40;;;;;;;14.45;54.87;96843.09;105298;1257;62160;-47
2023/12/21 02:14:37;;;;;;;2.80;1.20;;;;;;;14.46;54.99;96838.70;105357;1261;75331;-49
2023/12/21 02:17:08;;;;;;;1.70;1.10;;;;;;;14.46;54.91;96837.55;105237;1261;65201;-47
2023/12/21 02:19:35;;;;;;;1.30;1.10;;;;;;;14.45;55.03;96829.08;105230;1261;71505;-47
2023/12/21 02:22:02;;;;;;;1.20;1.10;;;;;;;14.46;54.92;96824.77;105268;1261;62096;-47
2023/12/21 02:24:30;;;;;;;1.40;1.30;;;;;;;14.46;54.93;96826.31;105117;1258;62106;-47
2023/12/21 02:26:57;;;;;;;1.60;1.40;;;;;;;14.46;54.92;96825.39;105240;1257;75129;-47
2023/12/21 02:29:24;;;;;;;1.30;1.00;;;;;;;14.46;54.91;96829.25;105360;1260;65824;-47
2023/12/21 02:31:51;;;;;;;1.40;1.30;;;;;;;14.46;54.87;96836.64;105308;1257;72390;-47
2023/12/21 02:34:19;;;;;;;1.50;1.30;;;;;;;14.46;54.90;96836.63;105317;1260;62048;-47
2023/12/21 02:36:47;;;;;;;1.30;1.20;;;;;;;14.46;54.91;96837.65;105188;1258;62141;-50
2023/12/21 02:39:14;;;;;;;1.40;1.20;;;;;;;14.46;54.85;96840.55;105211;1261;75422;-49
2023/12/21 02:41:41;;;;;;;1.50;1.10;;;;;;;14.46;54.94;96837.33;105462;1261;66035;-49
2023/12/21 02:44:09;;;;;;;1.00;0.90;;;;;;;14.46;54.90;96838.86;105217;1258;71588;-48
2023/12/21 02:46:36;;;;;;;1.40;1.30;;;;;;;14.46;54.93;96840.88;105372;1260;62081;-48
2023/12/21 02:49:04;;;;;;;1.50;1.30;;;;;;;14.46;54.89;96834.95;105385;1258;62067;-48
2023/12/21 02:51:31;;;;;;;2.20;1.40;;;;;;;14.46;54.86;96831.63;105106;1263;75240;-47
2023/12/21 02:53:58;;;;;;;1.40;1.20;;;;;;;14.46;54.81;96834.86;105126;1258;65939;-47
2023/12/21 02:56:26;;;;;;;1.20;1.10;;;;;;;14.46;54.83;96838.18;105130;1258;73677;-47
2023/12/21 02:58:53;;;;;;;1.20;1.10;;;;;;;14.46;54.79;96829.79;105158;1261;62062;-47
2023/12/21 03:01:20;;;;;;;1.30;1.00;;;;;;;14.46;54.96;96827.09;105248;1258;62082;-47
2023/12/21 03:03:48;;;;;;;1.50;1.30;;;;;;;14.47;54.80;96827.11;105147;1260;76023;-47
2023/12/21 03:06:15;;;;;;;2.20;1.20;;;;;;;14.46;54.76;96819.54;105563;1261;66053;-47
2023/12/21 03:08:42;;;;;;;1.30;1.20;;;;;;;14.46;54.85;96820.08;105333;1257;72738;-47
2023/12/21 03:11:09;;;;;;;1.70;1.20;;;;;;;14.46;54.77;96814.54;105153;1261;61938;-47
2023/12/21 03:13:37;;;;;;;2.40;1.20;;;;;;;14.46;54.83;96810.32;105178;1258;61997;-48
2023/12/21 03:16:06;;;;;;;1.30;1.20;;;;;;;14.46;54.91;96815.84;105114;1257;75381;-47
2023/12/21 03:18:33;;;;;;;1.40;1.30;;;;;;;14.46;54.81;96817.39;105145;1261;65335;-47
2023/12/21 03:21:00;;;;;;;1.70;1.40;;;;;;;14.46;54.84;96816.85;105234;1257;72698;-47
2023/12/21 03:23:28;;;;;;;1.40;1.30;;;;;;;14.46;54.84;96819.31;105384;1260;62104;-47
2023/12/21 03:25:55;;;;;;;2.70;1.30;;;;;;;14.47;54.86;96815.70;105241;1257;62052;-47
2023/12/21 03:28:22;;;;;;;1.50;1.30;;;;;;;14.47;54.86;96823.88;105323;1257;75413;-48
2023/12/21 03:30:50;;;;;;;1.20;1.10;;;;;;;14.47;54.90;96830.27;105417;1260;66317;-47
2023/12/21 03:33:17;;;;;;;1.30;1.10;;;;;;;14.47;54.79;96828.58;105171;1258;72573;-48
2023/12/21 03:35:45;;;;;;;1.20;1.00;;;;;;;14.47;54.76;96819.34;105544;1260;62084;-48
2023/12/21 03:38:12;;;;;;;1.10;1.00;;;;;;;14.47;54.83;96819.03;105432;1258;62142;-48
2023/12/21 03:40:39;;;;;;;1.20;1.10;;;;;;;14.47;54.90;96816.11;105315;1260;75390;-48
2023/12/21 03:43:07;;;;;;;1.40;1.20;;;;;;;14.47;54.72;96822.80;105197;1257;65837;-48
2023/12/21 03:45:39;;;;;;;1.60;1.20;;;;;;;14.46;54.80;96821.46;105594;1258;72682;-48
2023/12/21 03:48:08;;;;;;;1.10;1.00;;;;;;;14.47;54.71;96818.02;105187;1261;61965;-48
2023/12/21 03:50:36;;;;;;;1.40;1.20;;;;;;;14.47;54.81;96821.41;105607;1259;62179;-48
2023/12/21 03:53:05;;;;;;;1.40;1.10;;;;;;;14.47;54.80;96828.41;105191;1257;75295;-48
2023/12/21 03:55:32;;;;;;;1.50;1.20;;;;;;;14.46;54.75;96822.23;105884;1260;65095;-48
2023/12/21 03:58:00;;;;;;;1.50;1.10;;;;;;;14.47;54.73;96824.64;105129;1258;72474;-48
2023/12/21 04:00:27;;;;;;;1.60;1.40;;;;;;;14.47;54.75;96823.50;105402;1260;62056;-48
2023/12/21 04:02:55;;;;;;;1.80;1.20;;;;;;;14.47;54.73;96825.48;105314;1258;62147;-47
2023/12/21 04:05:23;;;;;;;1.30;1.20;;;;;;;14.47;54.75;96827.81;105353;1260;75404;-48
2023/12/21 04:07:50;;;;;;;3.00;1.30;;;;;;;14.47;54.80;96827.05;105378;1261;64105;-48
2023/12/21 04:10:18;;;;;;;1.40;1.20;;;;;;;14.47;54.73;96822.58;105320;1257;72291;-47
2023/12/21 04:12:45;;;;;;;1.30;1.20;;;;;;;14.47;54.76;96823.66;105399;1260;62039;-48
2023/12/21 04:15:13;;;;;;;1.40;1.20;;;;;;;14.47;54.66;96826.95;105546;1261;62077;-48
2023/12/21 04:17:40;;;;;;;1.30;1.20;;;;;;;14.47;54.64;96821.34;105311;1261;75421;-47
2023/12/21 04:20:09;;;;;;;1.30;1.20;;;;;;;14.47;54.63;96820.26;105355;1259;65278;-47
2023/12/21 04:22:37;;;;;;;1.40;1.20;;;;;;;14.47;54.65;96823.88;105256;1257;73701;-48
2023/12/21 04:25:04;;;;;;;1.30;1.20;;;;;;;14.47;54.72;96817.63;105345;1260;62054;-48
2023/12/21 04:27:32;;;;;;;1.20;1.10;;;;;;;14.47;54.61;96820.90;105221;1258;62413;-47
2023/12/21 04:29:59;;;;;;;1.10;1.00;;;;;;;14.47;54.62;96816.42;105383;1259;75524;-47
2023/12/21 04:32:27;;;;;;;1.00;0.90;;;;;;;14.47;54.69;96816.90;105323;1261;65972;-47
2023/12/21 04:34:54;;;;;;;1.10;1.00;;;;;;;14.48;54.71;96818.83;105384;1257;72432;-47
2023/12/21 04:37:22;;;;;;;1.30;1.10;;;;;;;14.48;54.64;96822.61;105408;1260;62164;-47
2023/12/21 04:39:49;;;;;;;1.70;1.20;;;;;;;14.48;54.62;96825.77;105238;1258;62159;-47
2023/12/21 04:42:17;;;;;;;1.20;1.10;;;;;;;14.48;54.70;96824.30;105133;1259;75181;-47
2023/12/21 04:44:44;;;;;;;1.40;1.20;;;;;;;14.49;54.61;96823.47;105172;1258;65920;-47
2023/12/21 04:47:12;;;;;;;1.20;1.10;;;;;;;14.48;54.61;96824.77;105318;1258;71398;-47
2023/12/21 04:49:50;;;;;;;1.20;1.10;;;;;;;14.49;54.69;96816.47;105339;1258;62085;-48
2023/12/21 04:52:18;;;;;;;1.30;0.90;;;;;;;14.49;54.71;96816.70;105333;1257;61996;-49
2023/12/21 04:54:46;;;;;;;1.10;1.00;;;;;;;14.50;54.70;96815.19;105311;1258;74272;-49
2023/12/21 04:57:13;;;;;;;2.00;1.20;;;;;;;14.49;54.57;96810.40;105352;1260;66508;-50
2023/12/21 04:59:44;;;;;;;1.40;1.30;;;;;;;14.50;54.58;96805.14;105217;1257;72314;-48
2023/12/21 05:02:12;;;;;;;1.50;1.20;;;;;;;14.50;54.72;96806.27;105318;1260;62142;-48
2023/12/21 05:04:39;;;;;;;1.30;1.20;;;;;;;14.51;54.65;96805.59;105291;1257;62170;-47
2023/12/21 05:07:10;;;;;;;1.20;1.10;;;;;;;14.51;54.70;96803.13;105332;1257;73731;-47
2023/12/21 05:09:38;;;;;;;1.20;1.10;;;;;;;14.52;54.64;96793.38;105189;1257;65444;-47
2023/12/21 05:12:05;;;;;;;1.40;1.10;;;;;;;14.51;54.69;96790.29;105493;1257;73498;-47
2023/12/21 05:14:32;;;;;;;1.30;1.00;;;;;;;14.52;54.49;96789.61;105341;1259;62354;-47
2023/12/21 05:17:00;;;;;;;1.50;1.10;;;;;;;14.53;54.56;96791.33;105299;1257;62450;-47
2023/12/21 05:19:28;;;;;;;1.10;1.00;;;;;;;14.53;54.66;96787.56;105115;1257;73889;-47
2023/12/21 05:21:55;;;;;;;1.50;1.20;;;;;;;14.53;54.57;96788.95;105282;1257;66117;-47
2023/12/21 05:24:23;;;;;;;1.20;1.10;;;;;;;14.54;54.52;96781.34;105512;1258;72582;-47
2023/12/21 05:26:50;;;;;;;1.30;1.10;;;;;;;14.54;54.50;96779.05;105122;1258;62055;-48
2023/12/21 05:29:17;;;;;;;0.90;0.90;;;;;;;14.54;54.56;96768.66;105374;1260;62042;-47
2023/12/21 05:31:45;;;;;;;1.70;1.20;;;;;;;14.55;54.58;96774.52;105143;1260;75397;-48
2023/12/21 05:34:12;;;;;;;1.10;1.00;;;;;;;14.54;54.66;96775.73;105421;1260;65850;-48
2023/12/21 05:36:40;;;;;;;1.30;0.90;;;;;;;14.55;54.63;96774.52;105163;1258;72566;-48
2023/12/21 05:39:09;;;;;;;2.40;1.20;;;;;;;14.55;54.54;96772.52;105137;1260;62042;-48
2023/12/21 05:41:44;;;;;;;2.60;1.20;;;;;;;14.55;54.48;96773.38;105146;1258;62079;-47
2023/12/21 05:44:12;;;;;;;1.30;1.10;;;;;;;14.55;54.50;96768.85;105454;1257;76149;-48
2023/12/21 05:46:41;;;;;;;1.40;1.30;;;;;;;14.55;54.46;96769.46;105502;1258;64500;-48
2023/12/21 05:49:09;;;;;;;1.60;1.20;;;;;;;14.56;54.53;96770.31;105652;1257;73144;-48
2023/12/21 05:51:37;;;;;;;1.60;1.20;;;;;;;14.56;54.67;96766.70;105245;1257;62364;-47
2023/12/21 05:54:04;;;;;;;1.40;1.10;;;;;;;14.56;54.56;96765.01;105224;1256;62117;-47
2023/12/21 05:56:35;;;;;;;3.10;1.40;;;;;;;14.57;54.59;96763.95;105547;1256;74888;-48
2023/12/21 05:59:03;;;;;;;1.50;1.40;;;;;;;14.57;54.63;96765.73;105358;1259;64830;-49
2023/12/21 06:01:32;;;;;;;1.70;1.50;;;;;;;14.58;54.64;96766.29;105098;1258;72603;-46
2023/12/21 06:04:00;;;;;;;1.90;1.50;;;;;;;14.57;54.48;96765.75;105303;1257;62067;-49
2023/12/21 06:06:28;;;;;;;1.70;1.50;;;;;;;14.58;54.47;96761.90;104979;1258;62151;-48
2023/12/21 06:08:56;;;;;;;2.10;1.50;;;;;;;14.58;54.58;96759.91;105404;1257;75407;-48
2023/12/21 06:11:23;;;;;;;2.10;1.40;;;;;;;14.59;54.62;96757.92;105039;1260;66520;-50
2023/12/21 06:13:50;;;;;;;1.80;1.40;;;;;;;14.59;54.63;96755.15;105258;1261;72560;-49
2023/12/21 06:16:18;;;;;;;2.20;1.50;;;;;;;14.59;54.60;96756.71;105476;1257;62170;-49
2023/12/21 06:18:45;;;;;;;1.70;1.50;;;;;;;14.59;54.65;96749.70;105189;1258;62198;-50
2023/12/21 06:21:13;;;;;;;2.10;1.60;;;;;;;14.60;54.60;96748.33;105287;1257;74497;-51
2023/12/21 06:23:40;;;;;;;1.80;1.60;;;;;;;14.60;54.60;96752.73;105328;1260;64237;-51
2023/12/21 06:26:07;;;;;;;2.60;1.50;;;;;;;14.61;54.57;96750.19;105372;1257;72716;-49
2023/12/21 06:28:35;;;;;;;1.90;1.40;;;;;;;14.61;54.57;96750.89;105075;1257;62067;-51
2023/12/21 06:31:03;;;;;;;1.90;1.60;;;;;;;14.60;54.65;96749.26;105200;1258;62135;-48
2023/12/21 06:33:31;;;;;;;1.60;1.30;;;;;;;14.61;54.59;96751.20;105481;1261;75195;-48
2023/12/21 06:35:59;;;;;;;2.00;1.40;;;;;;;14.61;54.51;96743.42;105511;1261;64075;-48
2023/12/21 06:38:26;;;;;;;1.80;1.20;;;;;;;14.60;54.55;96745.02;105260;1261;72678;-49
2023/12/21 06:40:53;;;;;;;2.10;1.40;;;;;;;14.60;54.63;96740.86;105405;1261;62053;-47
2023/12/21 06:43:22;;;;;;;3.80;1.60;;;;;;;14.61;54.45;96740.10;105192;1259;62126;-51
2023/12/21 06:45:49;;;;;;;2.00;1.40;;;;;;;14.61;54.90;96742.13;105101;1258;75584;-55
2023/12/21 06:48:17;;;;;;;3.30;1.50;;;;;;;14.63;54.77;96738.55;104966;1258;63951;-50
2023/12/21 06:50:44;;;;;;;2.00;1.70;;;;;;;14.66;54.97;96740.73;104902;1256;73682;-47
2023/12/21 06:53:15;;;;;;;2.50;1.70;;;;;;;14.72;55.53;96740.27;105259;1257;62160;-46
2023/12/21 06:55:43;;;;;;;3.30;1.70;;;;;;;14.78;55.64;96749.41;105454;1257;62278;-47
2023/12/21 06:58:10;;;;;;;4.80;1.70;;;;;;;14.82;55.61;96746.52;105153;1257;75402;-47
2023/12/21 07:00:38;;;;;;;2.30;1.50;;;;;;;14.86;55.66;96748.71;105284;1261;195299;-48
2023/12/21 07:03:06;;;;;;;4.30;1.50;;;;;;;14.89;55.52;96742.54;105339;1258;72328;-47
2023/12/21 07:05:33;;;;;;;2.60;1.70;;;;;;;14.92;55.44;96740.60;105694;1257;62161;-47
2023/12/21 07:08:01;;;;;;;1.80;1.40;;;;;;;14.94;55.33;96737.58;105375;1257;62156;-50
2023/12/21 07:10:28;;;;;;;3.70;1.70;;;;;;;14.95;55.30;96735.31;105131;1261;75178;-49
2023/12/21 07:12:56;;;;;;;3.00;1.70;;;;;;;14.97;55.24;96735.11;105236;1261;64757;-49
2023/12/21 07:15:23;;;;;;;2.60;1.60;;;;;;;14.98;55.08;96730.45;105237;1257;73556;-49
2023/12/21 07:17:51;;;;;;;4.10;1.70;;;;;;;15.00;55.08;96725.94;105246;1261;62056;-50
2023/12/21 07:20:24;;;;;;;3.90;1.60;;;;;;;15.00;54.91;96731.80;105415;1258;62039;-48
2023/12/21 07:22:52;;;;;;;2.90;1.50;;;;;;;15.01;54.94;96732.29;105243;1257;75553;-46
2023/12/21 07:25:19;;;;;;;3.80;2.00;;;;;;;15.03;55.00;96726.64;105163;1256;68913;-50
2023/12/21 07:27:47;;;;;;;3.90;1.70;;;;;;;15.05;55.45;96724.30;105187;1257;72391;-52
2023/12/21 07:30:16;;;;;;;2.80;1.70;;;;;;;15.09;55.70;96721.77;104888;1260;62018;-54
2023/12/21 07:32:43;;;;;;;3.10;1.70;;;;;;;15.13;55.82;96726.48;105123;1258;62051;-54
2023/12/21 07:35:11;;;;;;;2.70;1.70;;;;;;;15.16;55.84;96733.56;105119;1260;75436;-50
2023/12/21 07:37:38;;;;;;;3.70;1.70;;;;;;;15.18;55.78;96732.15;105451;1258;65887;-46
2023/12/21 07:40:07;;;;;;;2.70;1.60;;;;;;;15.20;55.93;96730.33;105016;1256;72354;-46
2023/12/21 07:42:35;;;;;;;3.10;1.80;;;;;;;15.21;55.84;96729.06;105009;1258;62173;-44
2023/12/21 07:45:05;;;;;;;4.20;1.60;;;;;;;15.23;55.96;96724.34;105016;1261;62047;-44
2023/12/21 07:47:33;;;;;;;3.40;1.50;;;;;;;15.24;55.82;96721.35;105196;1258;75559;-45
2023/12/21 07:50:02;;;;;;;5.30;1.70;;;;;;;15.26;55.96;96718.69;105104;1260;66210;-45
2023/12/21 07:52:29;;;;;;;2.30;1.70;;;;;;;15.25;56.00;96711.90;105383;1258;72593;-41
2023/12/21 07:54:56;;;;;;;3.90;1.70;;;;;;;15.27;56.02;96708.06;104975;1257;62042;-42
2023/12/21 07:57:24;;;;;;;2.00;1.60;;;;;;;15.27;55.98;96706.30;105195;1256;62139;-45
2023/12/21 07:59:51;;;;;;;1.70;1.60;;;;;;;15.27;56.01;96696.75;105174;1257;75392;-44
2023/12/21 08:02:18;;;;;;;2.70;1.40;;;;;;;15.28;56.06;96688.59;105180;1261;65510;-45
2023/12/21 08:04:46;;;;;;;3.20;1.90;;;;;;;15.27;55.93;96688.43;105157;1258;73217;-46
2023/12/21 08:07:13;;;;;;;2.70;1.40;;;;;;;15.27;55.85;96679.80;105301;1261;62128;-45
2023/12/21 08:09:41;;;;;;;3.40;1.60;;;;;;;15.28;55.78;96678.42;105329;1257;62157;-45
2023/12/21 08:12:09;;;;;;;3.10;1.60;;;;;;;15.28;55.70;96689.98;105397;1258;76205;-45
2023/12/21 08:14:37;;;;;;;2.90;1.60;;;;;;;15.28;55.64;96682.20;105221;1261;67321;-45
2023/12/21 08:17:09;;;;;;;2.80;1.80;;;;;;;15.28;55.53;96678.05;105034;1258;73645;-45
2023/12/21 08:19:37;;;;;;;2.90;1.70;;;;;;;15.28;55.41;96687.37;104881;1264;62072;-45
2023/12/21 08:22:05;;;;;;;3.50;1.60;;;;;;;15.28;55.35;96682.30;105029;1257;62043;-45
2023/12/21 08:24:33;;;;;;;2.70;1.70;;;;;;;15.28;55.10;96679.44;105186;1260;75180;-46
2023/12/21 08:27:00;;;;;;;2.80;1.40;;;;;;;15.29;55.01;96669.97;105160;1260;65433;-42
2023/12/21 08:29:28;;;;;;;2.40;1.70;;;;;;;15.29;54.97;96666.11;105232;1257;74066;-45
2023/12/21 08:31:55;;;;;;;3.70;1.30;;;;;;;15.29;55.08;96668.52;105180;1260;62049;-45
2023/12/21 08:34:23;;;;;;;3.50;1.50;;;;;;;15.31;55.05;96665.02;105188;1261;62068;-42
2023/12/21 08:36:50;;;;;;;5.20;1.70;;;;;;;15.31;55.24;96659.63;105503;1257;75293;-41
2023/12/21 08:39:18;;;;;;;5.40;1.80;;;;;;;15.33;55.30;96651.80;105149;1260;65584;-41
2023/12/21 08:41:45;;;;;;;2.30;1.70;;;;;;;15.34;55.23;96648.65;105483;1256;72417;-41
2023/12/21 08:44:13;;;;;;;2.70;1.80;;;;;;;15.35;55.18;96647.35;105414;1260;61994;-42
2023/12/21 08:46:42;;;;;;;4.00;1.40;;;;;;;15.34;55.08;96639.11;105102;1259;62173;-42
2023/12/21 08:49:12;;;;;;;2.60;1.50;;;;;;;15.34;55.04;96639.34;104997;1260;75390;-42
2023/12/21 08:51:40;;;;;;;4.50;1.70;;;;;;;15.34;55.00;96630.86;105262;1257;66281;-42
2023/12/21 08:54:07;;;;;;;2.20;1.50;;;;;;;15.34;54.96;96635.95;105074;1258;72652;-41
2023/12/21 08:56:41;;;;;;;3.90;1.50;;;;;;;15.35;54.92;96631.65;104903;1263;62067;-41
2023/12/21 08:59:09;;;;;;;4.80;1.60;;;;;;;15.35;54.86;96628.79;105190;1258;62105;-41
2023/12/21 09:01:37;;;;;;;3.30;1.80;;;;;;;15.35;54.83;96619.93;105304;1256;75932;-41
2023/12/21 09:04:07;;;;;;;2.90;1.70;;;;;;;15.36;54.70;96614.02;105286;1258;65998;-41
2023/12/21 09:06:35;;;;;;;3.40;1.40;;;;;;;15.35;54.72;96612.06;105058;1257;73367;-41
2023/12/21 09:09:02;;;;;;;3.30;1.70;;;;;;;15.34;54.79;96602.33;105320;1261;62025;-41
2023/12/21 09:11:30;;;;;;;3.20;1.60;;;;;;;15.34;54.76;96603.48;105230;1258;62157;-41
2023/12/21 09:13:57;;;;;;;2.00;1.40;;;;;;;15.34;54.74;96599.00;105039;1260;75109;-41
2023/12/21 09:16:24;;;;;;;2.90;1.40;;;;;;;15.34;54.60;96594.30;104948;1259;67089;-40
2023/12/21 09:18:52;;;;;;;1.90;1.20;;;;;;;15.34;54.76;96589.77;105212;1258;72535;-41
2023/12/21 09:21:19;;;;;;;2.80;1.70;;;;;;;15.34;54.71;96582.53;104782;1263;62099;-42
2023/12/21 09:23:47;;;;;;;4.30;1.60;;;;;;;15.35;54.63;96569.98;104865;1257;62075;-41
2023/12/21 09:26:14;;;;;;;2.10;1.40;;;;;;;15.35;54.62;96571.46;105287;1257;74436;-41
2023/12/21 09:28:41;;;;;;;2.30;1.40;;;;;;;15.36;54.72;96571.23;105048;1261;67170;-41
2023/12/21 09:31:09;;;;;;;1.90;1.40;;;;;;;15.36;54.70;96560.98;105114;1258;73384;-43
2023/12/21 09:33:38;;;;;;;4.40;1.70;;;;;;;15.37;54.80;96556.54;105227;1257;63124;-44
2023/12/21 09:36:09;;;;;;;3.80;1.90;;;;;;;15.38;54.83;96552.48;105367;1257;62068;-42
2023/12/21 09:38:36;;;;;;;3.40;1.70;;;;;;;15.40;54.98;96542.95;105529;1259;75805;-43
2023/12/21 09:41:04;;;;;;;3.40;1.70;;;;;;;15.41;55.05;96542.20;104958;1261;65140;-41
2023/12/21 09:43:32;;;;;;;3.50;1.80;;;;;;;15.42;55.03;96536.91;105069;1257;73658;-41
2023/12/21 09:45:59;;;;;;;2.50;1.50;;;;;;;15.43;55.03;96535.85;105015;1263;62097;-44
2023/12/21 09:48:27;;;;;;;6.00;1.80;;;;;;;15.43;55.10;96532.06;104979;1256;62462;-41
2023/12/21 09:50:54;;;;;;;3.40;1.80;;;;;;;15.43;55.10;96530.54;104906;1264;75575;-43
2023/12/21 09:53:22;;;;;;;3.90;1.40;;;;;;;15.44;55.18;96526.48;106120;1260;65678;-43
2023/12/21 09:55:50;;;;;;;5.70;1.50;;;;;;;15.45;55.10;96521.96;104983;1258;72740;-45
2023/12/21 09:58:18;;;;;;;7.10;1.80;;;;;;;15.46;55.13;96516.73;104941;1258;62107;-43
2023/12/21 10:00:45;;;;;;;3.10;1.70;;;;;;;15.46;55.26;96506.88;105263;1258;62172;-42
2023/12/21 10:03:13;;;;;;;2.60;1.30;;;;;;;15.47;55.37;96501.34;105104;1260;76428;-43
2023/12/21 10:05:40;;;;;;;2.60;1.60;;;;;;;15.48;55.36;96487.73;104829;1257;66318;-41
2023/12/21 10:08:09;;;;;;;5.30;2.00;;;;;;;15.49;55.44;96480.72;105252;1258;72476;-42
2023/12/21 10:10:39;;;;;;;2.40;1.40;;;;;;;15.50;55.43;96475.34;104992;1257;62020;-42
2023/12/21 10:13:07;;;;;;;3.90;2.00;;;;;;;15.51;55.57;96470.35;105377;1258;62290;-42
2023/12/21 10:15:35;;;;;;;3.50;1.70;;;;;;;15.51;55.63;96466.27;105546;1261;74700;-43
2023/12/21 10:18:06;;;;;;;2.50;1.40;;;;;;;15.52;55.72;96459.73;104912;1258;67192;-43
2023/12/21 10:20:35;;;;;;;2.20;1.30;;;;;;;15.53;55.62;96454.73;105480;1257;73628;-41
2023/12/21 10:23:04;;;;;;;2.70;1.50;;;;;;;15.53;55.62;96455.81;105192;1258;62346;-43
2023/12/21 10:25:32;;;;;;;2.10;1.50;;;;;;;15.54;55.73;96453.22;105391;1258;62725;-40
2023/12/21 10:28:00;;;;;;;3.00;1.40;;;;;;;15.55;55.75;96442.97;105152;1261;76258;-41
2023/12/21 10:30:27;;;;;;;3.70;1.60;;;;;;;15.56;55.81;96437.36;105190;1261;66271;-42
2023/12/21 10:32:55;;;;;;;3.30;1.70;;;;;;;15.56;55.70;96426.27;105140;1258;73125;-41
2023/12/21 10:35:25;;;;;;;5.10;1.70;;;;;;;15.55;55.09;96414.76;104959;1258;62089;-41
2023/12/21 10:37:52;;;;;;;3.60;2.10;;;;;;;15.54;54.18;96414.81;105107;1257;62075;-41
2023/12/21 10:40:22;;;;;;;3.30;2.00;;;;;;;15.48;52.62;96418.33;105064;1258;76808;-41
2023/12/21 10:42:49;;;;;;;4.10;2.00;;;;;;;15.40;51.91;96410.00;105014;1261;65917;-43
2023/12/21 10:45:18;;;;;;;2.90;2.00;;;;;;;15.35;52.27;96409.14;104904;1257;73286;-42
2023/12/21 10:48:08;;;;;;;3.80;2.00;;;;;;;15.33;52.63;96407.80;104984;1261;63526;-44
2023/12/21 10:50:36;;;;;;;3.40;1.90;;;;;;;15.32;52.79;96393.05;104809;1259;62475;-44
2023/12/21 10:53:04;;;;;;;4.30;2.10;;;;;;;15.33;53.08;96385.05;105017;1264;75233;-45
2023/12/21 10:55:32;;;;;;;4.10;2.10;;;;;;;15.33;53.37;96376.10;105333;1261;65998;-43
2023/12/21 10:58:02;;;;;;;3.40;1.90;;;;;;;15.33;53.45;96375.73;105046;1258;72609;-43
2023/12/21 11:00:30;;;;;;;4.10;2.00;;;;;;;15.34;53.72;96371.04;105660;1261;61976;-44
2023/12/21 11:02:57;;;;;;;3.70;1.90;;;;;;;15.35;53.88;96361.59;105192;1259;62112;-47
2023/12/21 11:05:26;;;;;;;4.10;1.90;;;;;;;15.36;54.07;96350.27;105711;1259;75390;-41
2023/12/21 11:07:54;;;;;;;4.70;1.80;;;;;;;15.37;54.25;96344.56;104961;1261;67369;-41
2023/12/21 11:10:22;;;;;;;4.10;1.70;;;;;;;15.37;54.41;96338.50;105197;1261;73670;-43
2023/12/21 11:12:50;;;;;;;3.60;1.80;;;;;;;15.38;54.45;96334.20;105505;1257;62031;-41
2023/12/21 11:15:21;;;;;;;4.60;2.10;;;;;;;15.39;54.37;96330.04;105185;1259;62185;-41
2023/12/21 11:17:51;;;;;;;5.20;2.20;;;;;;;15.41;55.17;96330.63;105275;1258;76465;-41
2023/12/21 11:20:24;;;;;;;5.30;1.80;;;;;;;15.44;55.79;96325.38;105118;1257;66860;-39
2023/12/21 11:23:08;;;;;;;3.40;1.80;;;;;;;15.48;55.75;96320.59;105330;1259;72752;-40
2023/12/21 11:25:35;;;;;;;4.10;2.00;;;;;;;15.51;55.82;96314.55;105105;1264;62151;-41
2023/12/21 11:28:04;;;;;;;5.20;2.00;;;;;;;15.53;55.61;96310.35;105143;1256;62487;-41